createdAt,value
2023-02-02T00:01:46.356Z,3.28
2023-02-02T00:04:18.974Z,3.75
2023-02-02T00:06:47.250Z,4.10
2023-02-02T00:09:19.091Z,2.95
2023-02-02T00:11:48.732Z,2.92
2023-02-02T00:14:16.952Z,2.80
2023-02-02T00:16:47.051Z,2.38
2023-02-02T00:19:18.721Z,2.50
2023-02-02T00:21:47.236Z,3.30
2023-02-02T00:24:19.098Z,2.45
2023-02-02T00:26:49.384Z,2.50
2023-02-02T00:29:20.878Z,3.47
2023-02-02T00:31:49.149Z,2.72
2023-02-02T00:34:19.243Z,3.35
2023-02-02T00:36:49.420Z,3.10
2023-02-02T00:39:19.619Z,2.83
2023-02-02T00:41:48.440Z,3.15
2023-02-02T00:44:34.338Z,2.33
2023-02-02T00:47:03.267Z,2.85
2023-02-02T00:49:32.846Z,3.33
2023-02-02T00:52:01.170Z,3.05
2023-02-02T00:54:29.443Z,3.00
2023-02-02T00:56:57.626Z,3.95
2023-02-02T00:59:25.877Z,2.75
2023-02-02T01:01:54.083Z,3.88
2023-02-02T01:04:22.539Z,2.75
2023-02-02T01:06:52.134Z,2.60
2023-02-02T01:09:20.415Z,2.88
2023-02-02T01:11:49.345Z,3.17
2023-02-02T01:14:17.587Z,3.08
2023-02-02T01:16:45.834Z,2.58
2023-02-02T01:19:14.798Z,2.67
2023-02-02T01:21:43.540Z,3.30
2023-02-02T01:24:13.559Z,2.67
2023-02-02T01:26:41.780Z,2.50
2023-02-02T01:29:10.404Z,3.60
2023-02-02T01:31:38.663Z,4.93
2023-02-02T01:34:06.969Z,4.65
2023-02-02T01:36:35.142Z,4.65
2023-02-02T01:39:03.373Z,3.67
2023-02-02T01:41:32.939Z,4.72
2023-02-02T01:44:02.841Z,5.38
2023-02-02T01:46:32.763Z,5.03
2023-02-02T01:49:07.111Z,5.75
2023-02-02T01:51:39.855Z,5.50
2023-02-02T01:54:13.086Z,4.68
2023-02-02T01:56:46.958Z,5.78
2023-02-02T01:59:17.039Z,5.45
2023-02-02T02:01:47.775Z,4.40
2023-02-02T02:04:17.502Z,4.90
2023-02-02T02:06:48.252Z,4.88
2023-02-02T02:09:16.978Z,3.45
2023-02-02T02:11:47.092Z,4.28
2023-02-02T02:14:34.353Z,3.67
2023-02-02T02:17:19.490Z,4.57
2023-02-02T02:20:31.621Z,4.75
2023-02-02T02:23:44.373Z,4.28
2023-02-02T02:26:38.794Z,3.70
2023-02-02T02:29:47.129Z,4.28
2023-02-02T02:32:28.561Z,4.65
2023-02-02T02:35:05.283Z,5.15
2023-02-02T02:37:44.412Z,3.80
2023-02-02T02:40:20.917Z,4.03
2023-02-02T02:42:53.728Z,4.13
2023-02-02T02:45:24.434Z,4.55
2023-02-02T02:47:55.279Z,3.92
2023-02-02T02:50:25.032Z,3.85
2023-02-02T02:53:03.340Z,4.40
2023-02-02T02:55:40.919Z,3.42
2023-02-02T02:58:13.993Z,4.10
2023-02-02T03:01:03.943Z,4.10
2023-02-02T03:03:53.998Z,4.28
2023-02-02T03:06:29.373Z,4.22
2023-02-02T03:09:04.101Z,3.88
2023-02-02T03:11:32.585Z,4.22
2023-02-02T03:14:03.012Z,3.58
2023-02-02T03:16:31.286Z,3.90
2023-02-02T03:19:00.794Z,3.80
2023-02-02T03:21:29.217Z,3.67
2023-02-02T03:23:57.386Z,3.88
2023-02-02T03:26:26.603Z,4.35
2023-02-02T03:28:56.532Z,4.43
2023-02-02T03:31:27.618Z,3.90
2023-02-02T03:33:56.198Z,3.92
2023-02-02T03:36:25.788Z,4.35
2023-02-02T03:38:54.013Z,5.40
2023-02-02T03:41:22.311Z,5.75
2023-02-02T03:43:50.470Z,5.55
2023-02-02T03:46:18.726Z,6.15
2023-02-02T03:48:47.386Z,6.97
2023-02-02T03:51:16.400Z,5.22
2023-02-02T03:53:47.603Z,5.90
2023-02-02T03:56:16.362Z,5.60
2023-02-02T03:58:46.377Z,5.55
2023-02-02T04:01:15.604Z,5.82
2023-02-02T04:03:43.897Z,4.30
2023-02-02T04:06:12.126Z,5.35
2023-02-02T04:08:40.613Z,5.10
2023-02-02T04:11:12.365Z,5.20
2023-02-02T04:13:43.309Z,5.28
2023-02-02T04:16:12.643Z,4.80
2023-02-02T04:18:40.850Z,5.25
2023-02-02T04:21:09.866Z,4.07
2023-02-02T04:23:38.522Z,4.32
2023-02-02T04:26:07.461Z,4.70
2023-02-02T04:28:37.074Z,4.13
2023-02-02T04:31:05.695Z,5.00
2023-02-02T04:33:35.485Z,5.07
2023-02-02T04:36:03.763Z,5.40
2023-02-02T04:38:32.265Z,5.93
2023-02-02T04:41:00.507Z,5.88
2023-02-02T04:43:28.700Z,5.55
2023-02-02T04:45:58.609Z,5.85
2023-02-02T04:48:26.717Z,5.57
2023-02-02T04:50:59.855Z,6.30
2023-02-02T04:53:28.034Z,8.85
2023-02-02T04:55:56.485Z,9.32
2023-02-02T04:58:24.851Z,8.48
2023-02-02T05:00:53.081Z,6.53
2023-02-02T05:03:22.640Z,7.00
2023-02-02T05:05:50.826Z,5.78
2023-02-02T05:08:19.018Z,6.50
2023-02-02T05:10:47.372Z,5.60
2023-02-02T05:13:15.557Z,6.40
2023-02-02T05:15:43.888Z,7.28
2023-02-02T05:18:12.145Z,6.00
2023-02-02T05:20:41.756Z,6.75
2023-02-02T05:23:09.988Z,7.20
2023-02-02T05:25:38.255Z,7.53
2023-02-02T05:28:06.640Z,7.10
2023-02-02T05:30:34.903Z,7.05
2023-02-02T05:33:03.041Z,7.00
2023-02-02T05:35:31.358Z,7.45
2023-02-02T05:38:00.832Z,7.30
2023-02-02T05:40:29.496Z,8.07
2023-02-02T05:42:57.644Z,7.53
2023-02-02T05:45:26.276Z,8.52
2023-02-02T05:47:55.443Z,8.13
2023-02-02T05:50:24.112Z,7.32
2023-02-02T05:53:05.083Z,7.70
2023-02-02T05:55:33.322Z,8.13
2023-02-02T05:58:01.579Z,8.70
2023-02-02T06:00:29.761Z,8.13
2023-02-02T06:02:57.916Z,7.97
2023-02-02T06:05:26.591Z,9.95
2023-02-02T06:07:54.953Z,9.52
2023-02-02T06:10:24.636Z,8.52
2023-02-02T06:12:52.814Z,10.45
2023-02-02T06:15:21.015Z,9.10
2023-02-02T06:17:49.187Z,9.15
2023-02-02T06:20:17.812Z,7.70
2023-02-02T06:22:45.979Z,8.20
2023-02-02T06:25:14.387Z,8.63
2023-02-02T06:27:45.327Z,10.25
2023-02-02T06:30:14.760Z,10.70
2023-02-02T06:32:43.365Z,13.63
2023-02-02T06:35:11.960Z,13.40
2023-02-02T06:37:40.728Z,13.13
2023-02-02T06:40:10.396Z,12.18
2023-02-02T06:42:38.809Z,10.25
2023-02-02T06:45:10.063Z,10.25
2023-02-02T06:47:38.278Z,9.48
2023-02-02T06:50:06.834Z,7.95
2023-02-02T06:52:35.145Z,7.90
2023-02-02T06:55:03.332Z,8.10
2023-02-02T06:57:31.541Z,9.48
2023-02-02T06:59:59.713Z,9.40
2023-02-02T07:02:29.330Z,10.77
2023-02-02T07:04:57.533Z,11.05
2023-02-02T07:07:25.792Z,11.18
2023-02-02T07:09:58.400Z,11.40
2023-02-02T07:12:27.734Z,11.35
2023-02-02T07:14:55.916Z,10.60
2023-02-02T07:17:24.089Z,10.75
2023-02-02T07:19:53.619Z,12.77
2023-02-02T07:22:21.823Z,9.75
2023-02-02T07:24:50.017Z,10.30
2023-02-02T07:27:18.423Z,10.43
2023-02-02T07:29:46.981Z,9.85
2023-02-02T07:32:15.260Z,9.45
2023-02-02T07:34:44.254Z,8.75
2023-02-02T07:37:13.812Z,10.00
2023-02-02T07:39:43.308Z,10.48
2023-02-02T07:42:12.480Z,8.73
2023-02-02T07:44:42.226Z,9.00
2023-02-02T07:47:10.585Z,7.57
2023-02-02T07:49:38.751Z,9.93
2023-02-02T07:52:07.113Z,9.82
2023-02-02T07:54:36.679Z,9.00
2023-02-02T07:57:05.085Z,9.68
2023-02-02T07:59:33.806Z,11.15
2023-02-02T08:02:02.076Z,11.40
2023-02-02T08:04:30.417Z,9.35
2023-02-02T08:06:58.683Z,9.52
2023-02-02T08:09:26.987Z,8.30
2023-02-02T08:12:01.694Z,9.38
2023-02-02T08:14:30.449Z,10.70
2023-02-02T08:16:58.750Z,9.05
2023-02-02T08:19:26.874Z,8.75
2023-02-02T08:21:55.134Z,9.20
2023-02-02T08:24:23.316Z,8.30
2023-02-02T08:26:51.734Z,8.18
2023-02-02T08:29:21.296Z,7.25
2023-02-02T08:31:49.593Z,7.43
2023-02-02T08:34:17.898Z,8.35
2023-02-02T08:36:46.122Z,8.13
2023-02-02T08:39:14.488Z,7.53
2023-02-02T08:41:43.382Z,7.82
2023-02-02T08:44:14.633Z,11.10
2023-02-02T08:46:44.562Z,9.05
2023-02-02T08:49:13.706Z,7.45
2023-02-02T08:51:43.129Z,7.38
2023-02-02T08:54:11.438Z,7.30
2023-02-02T08:56:39.722Z,7.43
2023-02-02T08:59:08.002Z,6.85
2023-02-02T09:01:36.724Z,4.97
2023-02-02T09:04:07.595Z,4.63
2023-02-02T09:06:37.534Z,5.22
2023-02-02T09:09:07.090Z,5.28
2023-02-02T09:11:35.384Z,3.38
2023-02-02T09:14:06.462Z,3.88
2023-02-02T09:16:36.174Z,4.22
2023-02-02T09:19:06.272Z,3.58
2023-02-02T09:21:36.972Z,3.47
2023-02-02T09:24:08.684Z,3.80
2023-02-02T09:26:38.698Z,3.92
2023-02-02T09:29:12.154Z,3.50
2023-02-02T09:31:40.706Z,3.95
2023-02-02T09:34:11.876Z,5.30
2023-02-02T09:36:41.455Z,5.20
2023-02-02T09:39:12.792Z,4.68
2023-02-02T09:42:06.144Z,3.28
2023-02-02T09:44:56.325Z,3.67
2023-02-02T09:47:30.654Z,4.13
2023-02-02T09:50:07.250Z,3.63
2023-02-02T09:52:41.850Z,3.90
2023-02-02T09:55:16.568Z,3.30
2023-02-02T09:57:48.416Z,3.27
2023-02-02T10:00:30.037Z,4.17
2023-02-02T10:03:03.766Z,4.60
2023-02-02T10:05:46.708Z,3.70
2023-02-02T10:08:34.096Z,4.07
2023-02-02T10:11:17.537Z,4.45
2023-02-02T10:13:48.909Z,6.78
2023-02-02T10:16:20.323Z,3.70
2023-02-02T10:18:55.111Z,4.47
2023-02-02T10:21:34.009Z,3.88
2023-02-02T10:24:04.610Z,3.28
2023-02-02T10:26:39.154Z,4.03
2023-02-02T10:29:16.667Z,4.45
2023-02-02T10:31:51.372Z,4.97
2023-02-02T10:34:26.921Z,3.90
2023-02-02T10:37:05.769Z,3.30
2023-02-02T10:39:46.049Z,3.65
2023-02-02T10:42:24.757Z,3.55
2023-02-02T10:44:58.079Z,3.42
2023-02-02T10:47:29.006Z,3.88
2023-02-02T10:50:09.336Z,3.40
2023-02-02T10:52:40.034Z,3.45
2023-02-02T10:55:19.540Z,3.70
2023-02-02T10:57:54.822Z,3.83
2023-02-02T11:00:26.727Z,4.60
2023-02-02T11:02:56.077Z,3.40
2023-02-02T11:05:43.537Z,3.53
2023-02-02T11:08:20.153Z,5.45
2023-02-02T11:10:51.075Z,4.80
2023-02-02T11:13:28.417Z,4.43
2023-02-02T11:16:23.396Z,4.43
2023-02-02T11:18:51.986Z,3.35
2023-02-02T11:21:22.396Z,4.05
2023-02-02T11:23:58.898Z,4.65
2023-02-02T11:26:28.362Z,3.20
2023-02-02T11:29:00.000Z,4.97
2023-02-02T11:31:36.960Z,3.25
2023-02-02T11:34:27.301Z,3.38
2023-02-02T11:37:13.814Z,4.00
2023-02-02T11:39:44.904Z,3.85
2023-02-02T11:42:17.331Z,3.60
2023-02-02T11:44:49.382Z,4.43
2023-02-02T11:47:26.189Z,4.13
2023-02-02T11:49:59.340Z,4.60
2023-02-02T11:52:32.641Z,4.78
2023-02-02T11:55:10.729Z,3.70
2023-02-02T11:57:39.133Z,3.53
2023-02-02T12:00:19.153Z,5.28
2023-02-02T12:02:48.526Z,4.50
2023-02-02T12:05:35.599Z,3.47
2023-02-02T12:08:05.154Z,3.67
2023-02-02T12:10:41.305Z,3.45
2023-02-02T12:13:18.027Z,2.33
2023-02-02T12:15:54.294Z,2.08
2023-02-02T12:18:41.505Z,2.08
2023-02-02T12:21:15.669Z,2.35
2023-02-02T12:23:56.513Z,2.25
2023-02-02T12:26:30.317Z,2.17
2023-02-02T12:29:26.570Z,2.10
2023-02-02T12:32:25.227Z,1.73
2023-02-02T12:35:07.923Z,1.90
2023-02-02T12:37:50.904Z,3.67
2023-02-02T12:40:31.275Z,2.45
2023-02-02T12:43:15.722Z,2.40
2023-02-02T12:46:11.924Z,2.65
2023-02-02T12:48:53.465Z,2.88
2023-02-02T12:51:38.955Z,3.40
2023-02-02T12:54:45.157Z,2.88
2023-02-02T12:57:28.008Z,2.90
2023-02-02T13:00:24.173Z,3.20
2023-02-02T13:03:05.234Z,2.35
2023-02-02T13:05:57.009Z,3.05
2023-02-02T13:08:32.598Z,2.90
2023-02-02T13:11:28.009Z,2.95
2023-02-02T13:13:59.433Z,2.88
2023-02-02T13:16:32.714Z,3.22
2023-02-02T13:19:05.726Z,2.75
2023-02-02T13:21:35.944Z,2.42
2023-02-02T13:24:06.849Z,2.58
2023-02-02T13:26:39.414Z,2.90
2023-02-02T13:29:12.715Z,2.80
2023-02-02T13:31:49.926Z,2.70
2023-02-02T13:34:22.916Z,2.65
2023-02-02T13:36:55.834Z,2.58
2023-02-02T13:39:32.748Z,2.15
2023-02-02T13:42:02.904Z,2.40
2023-02-02T13:44:36.238Z,2.55
2023-02-02T13:47:10.691Z,2.00
2023-02-02T13:49:42.623Z,3.55
2023-02-02T13:52:24.814Z,1.75
2023-02-02T13:55:33.658Z,2.10
2023-02-02T13:58:27.521Z,3.13
2023-02-02T14:01:01.255Z,2.40
2023-02-02T14:03:38.679Z,2.90
2023-02-02T14:06:11.473Z,2.97
2023-02-02T14:08:46.471Z,3.00
2023-02-02T14:11:21.642Z,1.50
2023-02-02T14:14:09.803Z,2.40
2023-02-02T14:16:51.374Z,2.40
2023-02-02T14:19:52.078Z,2.42
2023-02-02T14:22:44.634Z,2.50
2023-02-02T14:25:48.643Z,2.20
2023-02-02T14:28:42.531Z,2.00
2023-02-02T14:31:42.945Z,2.17
2023-02-02T14:34:34.857Z,2.83
2023-02-02T14:37:43.212Z,3.40
2023-02-02T14:40:33.310Z,3.60
2023-02-02T14:43:30.864Z,3.75
2023-02-02T14:46:24.029Z,4.00
2023-02-02T14:49:25.698Z,5.22
2023-02-02T14:52:05.366Z,6.90
2023-02-02T14:54:38.322Z,10.13
2023-02-02T14:57:23.320Z,7.20
2023-02-02T14:59:55.211Z,6.38
2023-02-02T15:02:26.835Z,5.60
2023-02-02T15:05:38.783Z,6.85
2023-02-02T15:08:22.426Z,5.85
2023-02-02T15:11:29.724Z,6.07
2023-02-02T15:14:07.498Z,5.97
2023-02-02T15:16:39.787Z,6.28
2023-02-02T15:19:24.222Z,3.45
2023-02-02T15:21:56.946Z,3.10
2023-02-02T15:24:29.490Z,2.80
2023-02-02T15:27:00.602Z,4.03
2023-02-02T15:29:41.608Z,3.00
2023-02-02T15:32:17.468Z,2.85
2023-02-02T15:34:49.775Z,3.15
2023-02-02T15:37:23.064Z,2.85
2023-02-02T15:39:56.451Z,3.67
2023-02-02T15:42:48.270Z,3.10
2023-02-02T15:45:43.474Z,3.70
2023-02-02T15:48:21.584Z,3.28
2023-02-02T15:50:54.694Z,2.65
2023-02-02T15:53:26.148Z,2.60
2023-02-02T15:55:57.018Z,2.40
2023-02-02T15:58:29.017Z,2.47
2023-02-02T16:01:03.112Z,2.20
2023-02-02T16:03:38.076Z,2.38
2023-02-02T16:06:10.119Z,2.30
2023-02-02T16:08:40.113Z,2.10
2023-02-02T16:11:12.977Z,2.63
2023-02-02T16:13:43.469Z,2.92
2023-02-02T16:16:26.637Z,2.60
2023-02-02T16:19:14.370Z,2.92
2023-02-02T16:21:47.887Z,3.10
2023-02-02T16:24:20.277Z,3.10
2023-02-02T16:26:51.870Z,3.20
2023-02-02T16:29:20.846Z,2.80
2023-02-02T16:31:50.922Z,2.25
2023-02-02T16:34:20.579Z,3.08
2023-02-02T16:37:06.923Z,2.60
2023-02-02T16:39:35.214Z,4.15
2023-02-02T16:42:12.049Z,4.53
2023-02-02T16:44:42.995Z,3.85
2023-02-02T16:47:33.180Z,3.92
2023-02-02T16:50:29.873Z,3.50
2023-02-02T16:53:02.261Z,5.75
2023-02-02T16:55:47.963Z,5.50
2023-02-02T16:58:23.768Z,4.30
2023-02-02T17:01:13.670Z,5.32
2023-02-02T17:03:50.687Z,5.03
2023-02-02T17:06:26.404Z,4.18
2023-02-02T17:08:54.865Z,4.47
2023-02-02T17:11:25.891Z,5.90
2023-02-02T17:13:56.253Z,5.60
2023-02-02T17:16:25.988Z,6.03
2023-02-02T17:18:54.333Z,4.60
2023-02-02T17:21:25.369Z,4.95
2023-02-02T17:23:54.737Z,3.97
2023-02-02T17:26:23.053Z,4.65
2023-02-02T17:28:56.016Z,8.75
2023-02-02T17:31:25.659Z,8.27
2023-02-02T17:33:53.825Z,7.82
2023-02-02T17:36:22.036Z,6.68
2023-02-02T17:38:50.233Z,6.43
2023-02-02T17:41:18.588Z,5.60
2023-02-02T17:43:46.811Z,3.83
2023-02-02T17:46:15.134Z,4.18
2023-02-02T17:48:44.685Z,4.63
2023-02-02T17:51:16.117Z,3.67
2023-02-02T17:53:45.240Z,3.15
2023-02-02T17:56:13.431Z,3.20
2023-02-02T17:58:41.600Z,4.20
2023-02-02T18:01:12.769Z,3.63
2023-02-02T18:03:44.858Z,3.20
2023-02-02T18:06:14.627Z,4.20
2023-02-02T18:08:42.772Z,3.58
2023-02-02T18:11:13.783Z,4.28
2023-02-02T18:13:43.611Z,3.28
2023-02-02T18:16:13.018Z,3.30
2023-02-02T18:18:41.291Z,3.35
2023-02-02T18:21:11.138Z,3.20
2023-02-02T18:23:40.983Z,3.22
2023-02-02T18:26:14.426Z,4.03
2023-02-02T18:28:42.825Z,3.17
2023-02-02T18:31:12.049Z,3.75
2023-02-02T18:33:41.645Z,4.28
2023-02-02T18:36:12.911Z,4.00
2023-02-02T18:38:45.226Z,4.28
2023-02-02T18:41:14.299Z,5.68
2023-02-02T18:43:42.514Z,3.85
2023-02-02T18:46:13.741Z,5.20
2023-02-02T18:48:42.882Z,5.70
2023-02-02T18:51:15.717Z,3.40
2023-02-02T18:53:46.593Z,4.80
2023-02-02T18:56:15.581Z,4.20
2023-02-02T18:58:43.755Z,7.13
2023-02-02T19:01:13.514Z,3.55
2023-02-02T19:03:41.928Z,4.53
2023-02-02T19:06:28.250Z,3.70
2023-02-02T19:08:57.955Z,3.90
2023-02-02T19:11:29.575Z,4.47
2023-02-02T19:13:57.869Z,4.60
2023-02-02T19:16:28.862Z,4.80
2023-02-02T19:18:58.294Z,4.07
2023-02-02T19:21:30.288Z,4.55
2023-02-02T19:24:00.942Z,5.03
2023-02-02T19:26:30.640Z,4.93
2023-02-02T19:29:03.986Z,4.95
2023-02-02T19:31:32.386Z,3.28
2023-02-02T19:34:01.198Z,4.45
2023-02-02T19:36:30.968Z,6.18
2023-02-02T19:39:15.941Z,4.57
2023-02-02T19:41:44.196Z,3.88
2023-02-02T19:44:19.518Z,3.92
2023-02-02T19:46:49.896Z,4.65
2023-02-02T19:49:25.075Z,5.80
2023-02-02T19:51:54.748Z,6.15
2023-02-02T19:54:33.487Z,5.05
2023-02-02T19:57:03.232Z,5.25
2023-02-02T19:59:36.071Z,5.40
2023-02-02T20:02:30.662Z,4.22
2023-02-02T20:05:07.494Z,5.28
2023-02-02T20:07:36.130Z,4.75
2023-02-02T20:10:18.983Z,4.25
2023-02-02T20:12:47.489Z,4.18
2023-02-02T20:15:28.434Z,3.78
2023-02-02T20:17:58.753Z,3.90
2023-02-02T20:20:30.011Z,4.15
2023-02-02T20:22:58.864Z,4.50
2023-02-02T20:25:29.316Z,4.97
2023-02-02T20:27:59.520Z,4.40
2023-02-02T20:30:31.291Z,4.68
2023-02-02T20:33:01.558Z,4.63
2023-02-02T20:35:37.975Z,4.40
2023-02-02T20:38:17.319Z,4.68
2023-02-02T20:40:46.932Z,4.05
2023-02-02T20:43:15.959Z,4.05
2023-02-02T20:45:44.575Z,4.78
2023-02-02T20:48:14.210Z,5.63
2023-02-02T20:50:43.468Z,5.20
2023-02-02T20:53:14.787Z,4.00
2023-02-02T20:55:42.957Z,4.38
2023-02-02T20:58:13.039Z,4.50
2023-02-02T21:00:41.220Z,5.50
2023-02-02T21:03:09.354Z,4.43
2023-02-02T21:05:38.091Z,4.93
2023-02-02T21:08:07.104Z,4.40
2023-02-02T21:10:35.445Z,4.80
2023-02-02T21:13:03.805Z,4.07
2023-02-02T21:15:33.500Z,4.82
2023-02-02T21:18:01.700Z,4.72
2023-02-02T21:20:30.149Z,5.13
2023-02-02T21:22:58.306Z,5.15
2023-02-02T21:25:26.441Z,4.35
2023-02-02T21:27:58.016Z,5.50
2023-02-02T21:30:26.730Z,5.45
2023-02-02T21:32:56.714Z,5.47
2023-02-02T21:35:26.195Z,5.22
2023-02-02T21:37:57.803Z,5.20
2023-02-02T21:40:29.857Z,5.47
2023-02-02T21:43:00.449Z,5.45
2023-02-02T21:45:34.447Z,5.05
2023-02-02T21:48:07.783Z,6.00
2023-02-02T21:50:37.723Z,6.00
2023-02-02T21:53:20.971Z,5.30
2023-02-02T21:55:53.483Z,5.32
2023-02-02T21:58:25.550Z,5.35
2023-02-02T22:00:55.079Z,4.70
2023-02-02T22:03:39.514Z,4.32
2023-02-02T22:06:24.247Z,4.53
2023-02-02T22:08:53.357Z,3.75
2023-02-02T22:11:29.359Z,5.30
2023-02-02T22:14:02.588Z,4.53
2023-02-02T22:16:40.806Z,4.55
2023-02-02T22:19:25.422Z,6.43
2023-02-02T22:21:54.082Z,5.65
2023-02-02T22:24:22.632Z,4.60
2023-02-02T22:26:50.829Z,4.50
2023-02-02T22:29:21.298Z,4.95
2023-02-02T22:31:49.586Z,5.63
2023-02-02T22:34:19.085Z,5.97
2023-02-02T22:36:47.237Z,4.57
2023-02-02T22:39:15.371Z,3.90
2023-02-02T22:41:44.122Z,3.92
2023-02-02T22:44:12.303Z,4.22
2023-02-02T22:46:40.551Z,3.50
2023-02-02T22:49:08.719Z,4.53
2023-02-02T22:51:38.321Z,4.13
2023-02-02T22:54:06.698Z,4.38
2023-02-02T22:56:34.933Z,4.10
2023-02-02T22:59:03.575Z,5.68
2023-02-02T23:01:31.887Z,5.65
2023-02-02T23:04:00.138Z,5.90
2023-02-02T23:06:28.329Z,5.20
2023-02-02T23:08:57.924Z,4.93
2023-02-02T23:11:26.060Z,4.93
2023-02-02T23:13:54.239Z,3.90
2023-02-02T23:16:22.540Z,4.35
2023-02-02T23:18:50.765Z,4.50
2023-02-02T23:21:18.908Z,4.25
2023-02-02T23:23:47.055Z,3.65
2023-02-02T23:26:16.685Z,3.88
2023-02-02T23:28:44.834Z,4.07
2023-02-02T23:31:13.112Z,4.30
2023-02-02T23:33:41.410Z,3.85
2023-02-02T23:36:09.973Z,3.78
2023-02-02T23:38:38.216Z,4.40
2023-02-02T23:41:06.717Z,3.80
2023-02-02T23:43:36.526Z,3.70
2023-02-02T23:46:04.707Z,3.88
2023-02-02T23:48:32.925Z,4.45
2023-02-02T23:51:01.061Z,3.88
2023-02-02T23:53:29.456Z,4.10
2023-02-02T23:55:57.634Z,4.07
2023-02-02T23:58:25.888Z,3.90
